Pickens, Arkansas
Current Conditions -  °F | °C
As of 11:53 AM on Thursday 27 Nov 2014 (Local Time) from KLLQ Reporting Station
Clear Clear  
Wind Chill: 45°   Ceiling: Unl
Heat Index: 45°   Visibility: 10mi
Dew Point: 27°   Wind: 0mph
Humidity: 49%   Direction: NA
Pressure: 30.53"   Gusts: NA
Location:  33.85°N, 91.48°W
Report Text: KLLQ 271753Z AUTO 00000KT 10SM CLR 07/M03 A3053 RMK AO2 SLP337 T00721028 10078 20011 50003
Loading
Personal Weather Stations






























Interactive Weather Map New forecast layout! Learn more

10-Day Weather Forecast

Advertisements
Track Severe Weather on mobile